sensor_id;sensor_type;location;lat;lon;timestamp;P1;durP1;ratioP1;P2;durP2;ratioP2
80653;SDS011;70020;45.524;10.240;2023-12-07T00:00:51;13.97;;;8.57;;
80653;SDS011;70020;45.524;10.240;2023-12-07T00:03:16;14.77;;;8.17;;
80653;SDS011;70020;45.524;10.240;2023-12-07T00:05:42;14.37;;;7.63;;
80653;SDS011;70020;45.524;10.240;2023-12-07T00:08:11;14.97;;;7.60;;
80653;SDS011;70020;45.524;10.240;2023-12-07T00:10:36;11.93;;;7.07;;
80653;SDS011;70020;45.524;10.240;2023-12-07T00:13:02;11.13;;;6.80;;
80653;SDS011;70020;45.524;10.240;2023-12-07T00:15:28;12.43;;;7.25;;
80653;SDS011;70020;45.524;10.240;2023-12-07T00:17:54;10.97;;;7.10;;
80653;SDS011;70020;45.524;10.240;2023-12-07T00:20:20;12.10;;;7.17;;
80653;SDS011;70020;45.524;10.240;2023-12-07T00:22:46;9.73;;;6.73;;
80653;SDS011;70020;45.524;10.240;2023-12-07T00:25:12;11.10;;;6.82;;
80653;SDS011;70020;45.524;10.240;2023-12-07T00:27:38;10.40;;;6.80;;
80653;SDS011;70020;45.524;10.240;2023-12-07T00:30:04;12.35;;;7.18;;
80653;SDS011;70020;45.524;10.240;2023-12-07T00:32:31;12.98;;;6.80;;
80653;SDS011;70020;45.524;10.240;2023-12-07T00:34:57;14.38;;;6.93;;
80653;SDS011;70020;45.524;10.240;2023-12-07T00:37:23;12.03;;;6.90;;
80653;SDS011;70020;45.524;10.240;2023-12-07T00:39:49;12.83;;;6.50;;
80653;SDS011;70020;45.524;10.240;2023-12-07T00:42:14;11.67;;;6.23;;
80653;SDS011;70020;45.524;10.240;2023-12-07T00:44:46;10.63;;;6.87;;
80653;SDS011;70020;45.524;10.240;2023-12-07T00:47:12;9.77;;;6.38;;
80653;SDS011;70020;45.524;10.240;2023-12-07T00:49:38;10.97;;;6.03;;
80653;SDS011;70020;45.524;10.240;2023-12-07T00:52:05;11.13;;;5.35;;
80653;SDS011;70020;45.524;10.240;2023-12-07T00:54:31;10.97;;;5.50;;
80653;SDS011;70020;45.524;10.240;2023-12-07T00:56:57;9.27;;;5.83;;
80653;SDS011;70020;45.524;10.240;2023-12-07T00:59:23;9.20;;;5.67;;
80653;SDS011;70020;45.524;10.240;2023-12-07T01:01:49;7.75;;;5.15;;
80653;SDS011;70020;45.524;10.240;2023-12-07T01:04:14;11.13;;;5.60;;
80653;SDS011;70020;45.524;10.240;2023-12-07T01:06:41;9.25;;;5.28;;
80653;SDS011;70020;45.524;10.240;2023-12-07T01:09:08;9.75;;;5.07;;
80653;SDS011;70020;45.524;10.240;2023-12-07T01:11:38;7.50;;;5.05;;
80653;SDS011;70020;45.524;10.240;2023-12-07T01:14:05;8.40;;;4.63;;
80653;SDS011;70020;45.524;10.240;2023-12-07T01:16:33;7.53;;;4.55;;
80653;SDS011;70020;45.524;10.240;2023-12-07T01:18:59;7.10;;;4.90;;
80653;SDS011;70020;45.524;10.240;2023-12-07T01:21:25;6.80;;;4.30;;
80653;SDS011;70020;45.524;10.240;2023-12-07T01:23:51;5.93;;;4.30;;
80653;SDS011;70020;45.524;10.240;2023-12-07T01:26:17;6.32;;;4.18;;
80653;SDS011;70020;45.524;10.240;2023-12-07T01:28:43;8.20;;;4.68;;
80653;SDS011;70020;45.524;10.240;2023-12-07T01:31:09;8.23;;;4.57;;
80653;SDS011;70020;45.524;10.240;2023-12-07T01:33:36;7.65;;;4.18;;
80653;SDS011;70020;45.524;10.240;2023-12-07T01:36:01;7.90;;;4.77;;
80653;SDS011;70020;45.524;10.240;2023-12-07T01:38:28;11.25;;;5.90;;
80653;SDS011;70020;45.524;10.240;2023-12-07T01:40:54;7.20;;;4.47;;
80653;SDS011;70020;45.524;10.240;2023-12-07T01:43:21;11.70;;;5.90;;
80653;SDS011;70020;45.524;10.240;2023-12-07T01:45:48;11.13;;;6.40;;
80653;SDS011;70020;45.524;10.240;2023-12-07T01:48:18;12.65;;;7.05;;
80653;SDS011;70020;45.524;10.240;2023-12-07T01:50:49;13.38;;;8.23;;
80653;SDS011;70020;45.524;10.240;2023-12-07T01:53:15;15.27;;;8.40;;
80653;SDS011;70020;45.524;10.240;2023-12-07T01:55:42;14.95;;;7.97;;
80653;SDS011;70020;45.524;10.240;2023-12-07T01:58:09;12.93;;;8.32;;
80653;SDS011;70020;45.524;10.240;2023-12-07T02:00:35;11.82;;;7.60;;
80653;SDS011;70020;45.524;10.240;2023-12-07T02:03:05;13.37;;;8.53;;
80653;SDS011;70020;45.524;10.240;2023-12-07T02:05:31;11.70;;;7.47;;
80653;SDS011;70020;45.524;10.240;2023-12-07T02:07:58;12.50;;;7.90;;
80653;SDS011;70020;45.524;10.240;2023-12-07T02:10:24;12.50;;;8.13;;
80653;SDS011;70020;45.524;10.240;2023-12-07T02:12:51;12.95;;;8.15;;
80653;SDS011;70020;45.524;10.240;2023-12-07T02:15:18;13.75;;;7.93;;
80653;SDS011;70020;45.524;10.240;2023-12-07T02:20:55;12.40;;;7.93;;
80653;SDS011;70020;45.524;10.240;2023-12-07T02:23:34;12.85;;;7.78;;
80653;SDS011;70020;45.524;10.240;2023-12-07T02:26:02;14.60;;;7.82;;
80653;SDS011;70020;45.524;10.240;2023-12-07T02:28:29;12.82;;;7.70;;
80653;SDS011;70020;45.524;10.240;2023-12-07T02:30:55;14.45;;;8.38;;
80653;SDS011;70020;45.524;10.240;2023-12-07T02:33:21;13.93;;;7.47;;
80653;SDS011;70020;45.524;10.240;2023-12-07T02:35:47;11.53;;;6.90;;
80653;SDS011;70020;45.524;10.240;2023-12-07T02:38:13;12.20;;;7.30;;
80653;SDS011;70020;45.524;10.240;2023-12-07T02:40:41;12.18;;;7.13;;
80653;SDS011;70020;45.524;10.240;2023-12-07T02:43:09;11.90;;;7.32;;
80653;SDS011;70020;45.524;10.240;2023-12-07T02:45:35;10.93;;;7.15;;
80653;SDS011;70020;45.524;10.240;2023-12-07T02:48:01;13.07;;;7.87;;
80653;SDS011;70020;45.524;10.240;2023-12-07T02:50:26;11.87;;;6.90;;
80653;SDS011;70020;45.524;10.240;2023-12-07T02:52:52;11.47;;;7.37;;
80653;SDS011;70020;45.524;10.240;2023-12-07T02:55:17;11.10;;;6.67;;
80653;SDS011;70020;45.524;10.240;2023-12-07T02:57:45;11.25;;;6.50;;
80653;SDS011;70020;45.524;10.240;2023-12-07T03:00:11;13.27;;;7.07;;
80653;SDS011;70020;45.524;10.240;2023-12-07T03:02:38;11.05;;;7.25;;
80653;SDS011;70020;45.524;10.240;2023-12-07T03:05:05;11.13;;;6.32;;
80653;SDS011;70020;45.524;10.240;2023-12-07T03:07:32;11.27;;;6.45;;
80653;SDS011;70020;45.524;10.240;2023-12-07T03:09:59;10.90;;;6.15;;
80653;SDS011;70020;45.524;10.240;2023-12-07T03:12:25;9.43;;;5.80;;
80653;SDS011;70020;45.524;10.240;2023-12-07T03:14:54;9.40;;;5.90;;
80653;SDS011;70020;45.524;10.240;2023-12-07T03:17:20;10.23;;;5.82;;
80653;SDS011;70020;45.524;10.240;2023-12-07T03:19:47;10.65;;;5.82;;
80653;SDS011;70020;45.524;10.240;2023-12-07T03:22:13;8.33;;;5.50;;
80653;SDS011;70020;45.524;10.240;2023-12-07T03:24:40;10.00;;;5.53;;
80653;SDS011;70020;45.524;10.240;2023-12-07T03:27:10;9.60;;;5.85;;
80653;SDS011;70020;45.524;10.240;2023-12-07T03:29:36;8.80;;;5.30;;
80653;SDS011;70020;45.524;10.240;2023-12-07T03:32:03;6.88;;;4.53;;
80653;SDS011;70020;45.524;10.240;2023-12-07T03:34:30;11.10;;;5.45;;
80653;SDS011;70020;45.524;10.240;2023-12-07T03:36:56;7.65;;;5.00;;
80653;SDS011;70020;45.524;10.240;2023-12-07T03:39:22;7.38;;;5.38;;
80653;SDS011;70020;45.524;10.240;2023-12-07T03:41:50;7.65;;;4.97;;
80653;SDS011;70020;45.524;10.240;2023-12-07T03:44:16;7.87;;;5.03;;
80653;SDS011;70020;45.524;10.240;2023-12-07T03:46:42;8.07;;;4.90;;
80653;SDS011;70020;45.524;10.240;2023-12-07T03:49:08;8.23;;;5.43;;
80653;SDS011;70020;45.524;10.240;2023-12-07T03:51:33;7.83;;;5.27;;
80653;SDS011;70020;45.524;10.240;2023-12-07T03:54:01;8.23;;;5.32;;
80653;SDS011;70020;45.524;10.240;2023-12-07T03:56:27;10.43;;;4.90;;
80653;SDS011;70020;45.524;10.240;2023-12-07T03:58:54;9.27;;;4.90;;
80653;SDS011;70020;45.524;10.240;2023-12-07T04:01:23;10.57;;;4.80;;
80653;SDS011;70020;45.524;10.240;2023-12-07T04:03:53;7.47;;;4.78;;
80653;SDS011;70020;45.524;10.240;2023-12-07T04:06:21;8.32;;;4.78;;
80653;SDS011;70020;45.524;10.240;2023-12-07T04:08:47;7.18;;;4.57;;
80653;SDS011;70020;45.524;10.240;2023-12-07T04:11:13;7.87;;;4.67;;
80653;SDS011;70020;45.524;10.240;2023-12-07T04:13:40;6.57;;;4.10;;
80653;SDS011;70020;45.524;10.240;2023-12-07T04:16:06;5.85;;;4.07;;
80653;SDS011;70020;45.524;10.240;2023-12-07T04:18:33;7.85;;;4.35;;
80653;SDS011;70020;45.524;10.240;2023-12-07T04:20:59;6.00;;;3.70;;
80653;SDS011;70020;45.524;10.240;2023-12-07T04:23:25;6.37;;;3.23;;
80653;SDS011;70020;45.524;10.240;2023-12-07T04:25:51;6.63;;;3.30;;
80653;SDS011;70020;45.524;10.240;2023-12-07T04:28:17;4.60;;;3.23;;
80653;SDS011;70020;45.524;10.240;2023-12-07T04:30:42;5.60;;;3.73;;
80653;SDS011;70020;45.524;10.240;2023-12-07T04:33:08;6.47;;;2.90;;
80653;SDS011;70020;45.524;10.240;2023-12-07T04:35:35;4.30;;;2.90;;
80653;SDS011;70020;45.524;10.240;2023-12-07T04:38:02;4.18;;;2.78;;
80653;SDS011;70020;45.524;10.240;2023-12-07T04:40:28;5.85;;;3.15;;
80653;SDS011;70020;45.524;10.240;2023-12-07T04:42:54;7.78;;;3.53;;
80653;SDS011;70020;45.524;10.240;2023-12-07T04:45:21;5.32;;;3.35;;
80653;SDS011;70020;45.524;10.240;2023-12-07T04:47:47;5.83;;;3.57;;
80653;SDS011;70020;45.524;10.240;2023-12-07T04:50:14;5.05;;;3.25;;
80653;SDS011;70020;45.524;10.240;2023-12-07T04:52:39;5.23;;;3.23;;
80653;SDS011;70020;45.524;10.240;2023-12-07T04:55:06;4.55;;;3.35;;
80653;SDS011;70020;45.524;10.240;2023-12-07T04:57:32;6.17;;;3.30;;
80653;SDS011;70020;45.524;10.240;2023-12-07T05:00:02;4.70;;;3.30;;
80653;SDS011;70020;45.524;10.240;2023-12-07T05:02:46;6.43;;;3.83;;
80653;SDS011;70020;45.524;10.240;2023-12-07T05:05:31;5.40;;;3.50;;
80653;SDS011;70020;45.524;10.240;2023-12-07T05:08:17;10.10;;;3.70;;
80653;SDS011;70020;45.524;10.240;2023-12-07T05:10:43;6.93;;;4.10;;
80653;SDS011;70020;45.524;10.240;2023-12-07T05:13:28;8.73;;;4.15;;
80653;SDS011;70020;45.524;10.240;2023-12-07T05:16:14;11.68;;;4.10;;
80653;SDS011;70020;45.524;10.240;2023-12-07T05:18:59;6.80;;;4.10;;
80653;SDS011;70020;45.524;10.240;2023-12-07T05:21:46;9.75;;;4.22;;
80653;SDS011;70020;45.524;10.240;2023-12-07T05:24:12;8.07;;;4.43;;
80653;SDS011;70020;45.524;10.240;2023-12-07T05:26:37;8.60;;;5.23;;
80653;SDS011;70020;45.524;10.240;2023-12-07T05:29:03;7.03;;;4.60;;
80653;SDS011;70020;45.524;10.240;2023-12-07T05:31:49;7.55;;;4.35;;
80653;SDS011;70020;45.524;10.240;2023-12-07T05:34:41;8.70;;;4.53;;
80653;SDS011;70020;45.524;10.240;2023-12-07T05:37:07;8.63;;;4.50;;
80653;SDS011;70020;45.524;10.240;2023-12-07T05:39:33;8.57;;;4.32;;
80653;SDS011;70020;45.524;10.240;2023-12-07T05:42:18;6.97;;;4.35;;
80653;SDS011;70020;45.524;10.240;2023-12-07T05:44:43;6.53;;;4.27;;
80653;SDS011;70020;45.524;10.240;2023-12-07T05:47:29;8.10;;;4.45;;
80653;SDS011;70020;45.524;10.240;2023-12-07T05:50:14;8.15;;;4.57;;
80653;SDS011;70020;45.524;10.240;2023-12-07T05:53:00;7.38;;;4.53;;
80653;SDS011;70020;45.524;10.240;2023-12-07T05:55:46;7.18;;;4.00;;
80653;SDS011;70020;45.524;10.240;2023-12-07T05:58:32;9.30;;;4.43;;
80653;SDS011;70020;45.524;10.240;2023-12-07T06:01:18;8.35;;;4.40;;
80653;SDS011;70020;45.524;10.240;2023-12-07T06:03:46;5.43;;;3.70;;
80653;SDS011;70020;45.524;10.240;2023-12-07T06:06:12;9.33;;;4.37;;
80653;SDS011;70020;45.524;10.240;2023-12-07T06:08:38;11.90;;;4.30;;
80653;SDS011;70020;45.524;10.240;2023-12-07T06:11:03;7.07;;;3.88;;
80653;SDS011;70020;45.524;10.240;2023-12-07T06:13:33;6.35;;;4.18;;
80653;SDS011;70020;45.524;10.240;2023-12-07T06:15:59;8.25;;;3.88;;
80653;SDS011;70020;45.524;10.240;2023-12-07T06:18:26;9.52;;;5.00;;
80653;SDS011;70020;45.524;10.240;2023-12-07T06:20:52;8.70;;;4.40;;
80653;SDS011;70020;45.524;10.240;2023-12-07T06:23:20;8.90;;;4.10;;
80653;SDS011;70020;45.524;10.240;2023-12-07T06:25:47;8.80;;;4.70;;
80653;SDS011;70020;45.524;10.240;2023-12-07T06:28:12;8.50;;;4.03;;
80653;SDS011;70020;45.524;10.240;2023-12-07T06:30:38;6.73;;;3.97;;
80653;SDS011;70020;45.524;10.240;2023-12-07T06:33:04;9.03;;;4.30;;
80653;SDS011;70020;45.524;10.240;2023-12-07T06:35:30;8.83;;;4.30;;
80653;SDS011;70020;45.524;10.240;2023-12-07T06:37:56;9.90;;;4.77;;
80653;SDS011;70020;45.524;10.240;2023-12-07T06:40:22;11.23;;;5.05;;
80653;SDS011;70020;45.524;10.240;2023-12-07T06:42:47;8.63;;;4.10;;
80653;SDS011;70020;45.524;10.240;2023-12-07T06:45:16;10.20;;;4.60;;
80653;SDS011;70020;45.524;10.240;2023-12-07T06:47:42;6.87;;;4.00;;
80653;SDS011;70020;45.524;10.240;2023-12-07T06:50:08;8.75;;;4.07;;
80653;SDS011;70020;45.524;10.240;2023-12-07T06:52:38;5.80;;;3.10;;
80653;SDS011;70020;45.524;10.240;2023-12-07T06:55:04;8.93;;;3.33;;
80653;SDS011;70020;45.524;10.240;2023-12-07T06:57:30;8.70;;;3.40;;
80653;SDS011;70020;45.524;10.240;2023-12-07T06:59:56;6.10;;;3.03;;
80653;SDS011;70020;45.524;10.240;2023-12-07T07:02:22;20.30;;;6.13;;
80653;SDS011;70020;45.524;10.240;2023-12-07T07:04:48;18.02;;;4.40;;
80653;SDS011;70020;45.524;10.240;2023-12-07T07:07:14;9.00;;;4.05;;
80653;SDS011;70020;45.524;10.240;2023-12-07T07:12:07;9.35;;;4.30;;
80653;SDS011;70020;45.524;10.240;2023-12-07T07:14:32;9.20;;;4.90;;
80653;SDS011;70020;45.524;10.240;2023-12-07T07:16:59;8.40;;;4.95;;
80653;SDS011;70020;45.524;10.240;2023-12-07T07:19:24;10.80;;;4.50;;
80653;SDS011;70020;45.524;10.240;2023-12-07T07:21:50;19.80;;;7.57;;
80653;SDS011;70020;45.524;10.240;2023-12-07T07:24:17;15.40;;;5.93;;
80653;SDS011;70020;45.524;10.240;2023-12-07T07:26:42;10.63;;;6.20;;
80653;SDS011;70020;45.524;10.240;2023-12-07T07:31:35;9.70;;;5.60;;
80653;SDS011;70020;45.524;10.240;2023-12-07T07:34:02;10.32;;;6.03;;
80653;SDS011;70020;45.524;10.240;2023-12-07T07:36:28;11.73;;;6.43;;
80653;SDS011;70020;45.524;10.240;2023-12-07T07:38:54;10.30;;;5.57;;
80653;SDS011;70020;45.524;10.240;2023-12-07T07:41:20;14.13;;;6.53;;
80653;SDS011;70020;45.524;10.240;2023-12-07T07:43:46;11.25;;;5.95;;
80653;SDS011;70020;45.524;10.240;2023-12-07T07:46:12;12.00;;;6.07;;
80653;SDS011;70020;45.524;10.240;2023-12-07T07:48:38;11.97;;;5.23;;
80653;SDS011;70020;45.524;10.240;2023-12-07T07:51:04;10.07;;;5.30;;
80653;SDS011;70020;45.524;10.240;2023-12-07T07:53:30;11.32;;;5.22;;
80653;SDS011;70020;45.524;10.240;2023-12-07T07:55:56;14.77;;;6.03;;
80653;SDS011;70020;45.524;10.240;2023-12-07T07:58:21;9.90;;;4.53;;
80653;SDS011;70020;45.524;10.240;2023-12-07T08:00:47;11.87;;;5.20;;
80653;SDS011;70020;45.524;10.240;2023-12-07T08:05:39;8.65;;;4.28;;
80653;SDS011;70020;45.524;10.240;2023-12-07T08:08:07;7.72;;;4.57;;
80653;SDS011;70020;45.524;10.240;2023-12-07T08:10:34;11.88;;;5.13;;
80653;SDS011;70020;45.524;10.240;2023-12-07T08:13:00;9.13;;;5.45;;
80653;SDS011;70020;45.524;10.240;2023-12-07T08:15:26;14.35;;;6.25;;
80653;SDS011;70020;45.524;10.240;2023-12-07T08:17:52;13.88;;;6.68;;
80653;SDS011;70020;45.524;10.240;2023-12-07T08:20:18;13.15;;;6.80;;
80653;SDS011;70020;45.524;10.240;2023-12-07T08:22:44;8.10;;;5.07;;
80653;SDS011;70020;45.524;10.240;2023-12-07T08:25:10;11.03;;;4.97;;
80653;SDS011;70020;45.524;10.240;2023-12-07T08:27:36;10.37;;;6.10;;
80653;SDS011;70020;45.524;10.240;2023-12-07T08:32:29;8.68;;;4.82;;
80653;SDS011;70020;45.524;10.240;2023-12-07T08:34:55;12.32;;;5.28;;
80653;SDS011;70020;45.524;10.240;2023-12-07T08:37:21;11.35;;;5.18;;
80653;SDS011;70020;45.524;10.240;2023-12-07T08:39:47;7.83;;;5.07;;
80653;SDS011;70020;45.524;10.240;2023-12-07T08:42:12;8.83;;;5.03;;
80653;SDS011;70020;45.524;10.240;2023-12-07T08:44:38;9.40;;;5.20;;
80653;SDS011;70020;45.524;10.240;2023-12-07T08:47:04;12.87;;;5.17;;
80653;SDS011;70020;45.524;10.240;2023-12-07T08:49:30;7.55;;;5.15;;
80653;SDS011;70020;45.524;10.240;2023-12-07T08:51:56;11.95;;;5.40;;
80653;SDS011;70020;45.524;10.240;2023-12-07T08:54:22;8.52;;;4.55;;
80653;SDS011;70020;45.524;10.240;2023-12-07T08:56:48;10.97;;;5.00;;
80653;SDS011;70020;45.524;10.240;2023-12-07T08:59:15;10.70;;;5.43;;
80653;SDS011;70020;45.524;10.240;2023-12-07T09:01:41;9.67;;;5.27;;
80653;SDS011;70020;45.524;10.240;2023-12-07T09:04:06;14.33;;;5.93;;
80653;SDS011;70020;45.524;10.240;2023-12-07T09:06:32;16.67;;;5.73;;
80653;SDS011;70020;45.524;10.240;2023-12-07T09:08:58;13.23;;;5.43;;
80653;SDS011;70020;45.524;10.240;2023-12-07T09:11:24;12.50;;;6.13;;
80653;SDS011;70020;45.524;10.240;2023-12-07T09:13:49;15.63;;;6.27;;
80653;SDS011;70020;45.524;10.240;2023-12-07T09:16:19;13.35;;;7.22;;
80653;SDS011;70020;45.524;10.240;2023-12-07T09:21:12;20.38;;;8.23;;
80653;SDS011;70020;45.524;10.240;2023-12-07T09:23:38;20.65;;;8.77;;
80653;SDS011;70020;45.524;10.240;2023-12-07T09:26:04;20.80;;;9.38;;
80653;SDS011;70020;45.524;10.240;2023-12-07T09:28:31;15.45;;;7.45;;
80653;SDS011;70020;45.524;10.240;2023-12-07T09:30:58;21.08;;;9.25;;
80653;SDS011;70020;45.524;10.240;2023-12-07T09:33:26;17.80;;;9.70;;
80653;SDS011;70020;45.524;10.240;2023-12-07T09:35:52;20.73;;;10.10;;
80653;SDS011;70020;45.524;10.240;2023-12-07T09:38:18;27.90;;;11.80;;
80653;SDS011;70020;45.524;10.240;2023-12-07T09:40:45;19.20;;;10.30;;
80653;SDS011;70020;45.524;10.240;2023-12-07T09:43:11;21.45;;;10.00;;
80653;SDS011;70020;45.524;10.240;2023-12-07T09:45:37;14.45;;;8.10;;
80653;SDS011;70020;45.524;10.240;2023-12-07T09:48:03;17.30;;;9.05;;
80653;SDS011;70020;45.524;10.240;2023-12-07T09:50:30;18.17;;;9.13;;
80653;SDS011;70020;45.524;10.240;2023-12-07T09:52:57;19.27;;;9.10;;
80653;SDS011;70020;45.524;10.240;2023-12-07T09:57:58;15.77;;;7.68;;
80653;SDS011;70020;45.524;10.240;2023-12-07T10:00:26;11.85;;;6.35;;
80653;SDS011;70020;45.524;10.240;2023-12-07T10:02:52;10.90;;;5.77;;
80653;SDS011;70020;45.524;10.240;2023-12-07T10:05:17;11.33;;;6.33;;
80653;SDS011;70020;45.524;10.240;2023-12-07T10:07:44;11.80;;;5.70;;
80653;SDS011;70020;45.524;10.240;2023-12-07T10:10:14;17.42;;;6.40;;
80653;SDS011;70020;45.524;10.240;2023-12-07T10:12:44;10.90;;;6.13;;
80653;SDS011;70020;45.524;10.240;2023-12-07T10:15:11;11.50;;;6.00;;
80653;SDS011;70020;45.524;10.240;2023-12-07T10:17:54;11.10;;;5.60;;
80653;SDS011;70020;45.524;10.240;2023-12-07T10:20:44;12.07;;;5.30;;
80653;SDS011;70020;45.524;10.240;2023-12-07T10:23:11;11.43;;;5.25;;
80653;SDS011;70020;45.524;10.240;2023-12-07T10:25:42;12.27;;;5.27;;
80653;SDS011;70020;45.524;10.240;2023-12-07T10:28:09;13.55;;;6.13;;
80653;SDS011;70020;45.524;10.240;2023-12-07T10:30:39;10.68;;;6.25;;
80653;SDS011;70020;45.524;10.240;2023-12-07T10:33:07;13.88;;;5.80;;
80653;SDS011;70020;45.524;10.240;2023-12-07T10:35:37;14.40;;;6.35;;
80653;SDS011;70020;45.524;10.240;2023-12-07T10:38:05;10.80;;;6.38;;
80653;SDS011;70020;45.524;10.240;2023-12-07T10:40:35;15.07;;;6.53;;
80653;SDS011;70020;45.524;10.240;2023-12-07T10:45:32;12.98;;;6.45;;
80653;SDS011;70020;45.524;10.240;2023-12-07T10:48:06;11.30;;;6.60;;
80653;SDS011;70020;45.524;10.240;2023-12-07T10:50:43;14.50;;;7.50;;
80653;SDS011;70020;45.524;10.240;2023-12-07T10:53:19;14.57;;;7.72;;
80653;SDS011;70020;45.524;10.240;2023-12-07T10:55:56;11.95;;;6.15;;
80653;SDS011;70020;45.524;10.240;2023-12-07T10:58:25;11.07;;;5.50;;
80653;SDS011;70020;45.524;10.240;2023-12-07T11:00:54;12.93;;;5.22;;
80653;SDS011;70020;45.524;10.240;2023-12-07T11:03:21;11.77;;;5.07;;
80653;SDS011;70020;45.524;10.240;2023-12-07T11:05:47;10.07;;;4.75;;
80653;SDS011;70020;45.524;10.240;2023-12-07T11:14:08;8.75;;;4.75;;
80653;SDS011;70020;45.524;10.240;2023-12-07T11:16:41;7.45;;;4.40;;
80653;SDS011;70020;45.524;10.240;2023-12-07T11:24:36;11.73;;;4.72;;
80653;SDS011;70020;45.524;10.240;2023-12-07T11:27:05;9.57;;;3.83;;
80653;SDS011;70020;45.524;10.240;2023-12-07T11:29:36;8.88;;;4.22;;
80653;SDS011;70020;45.524;10.240;2023-12-07T11:32:02;12.60;;;4.88;;
80653;SDS011;70020;45.524;10.240;2023-12-07T11:34:39;9.20;;;4.45;;
80653;SDS011;70020;45.524;10.240;2023-12-07T11:37:09;9.48;;;4.38;;
80653;SDS011;70020;45.524;10.240;2023-12-07T11:39:40;9.80;;;4.13;;
80653;SDS011;70020;45.524;10.240;2023-12-07T11:42:09;7.55;;;4.57;;
80653;SDS011;70020;45.524;10.240;2023-12-07T11:44:37;7.25;;;4.75;;
80653;SDS011;70020;45.524;10.240;2023-12-07T11:47:09;10.10;;;5.32;;
80653;SDS011;70020;45.524;10.240;2023-12-07T11:49:37;12.63;;;6.47;;
80653;SDS011;70020;45.524;10.240;2023-12-07T11:52:16;14.70;;;7.55;;
80653;SDS011;70020;45.524;10.240;2023-12-07T11:54:46;13.68;;;7.63;;
80653;SDS011;70020;45.524;10.240;2023-12-07T11:57:30;16.50;;;7.63;;
80653;SDS011;70020;45.524;10.240;2023-12-07T11:59:57;17.05;;;8.68;;
80653;SDS011;70020;45.524;10.240;2023-12-07T12:02:23;15.10;;;8.57;;
80653;SDS011;70020;45.524;10.240;2023-12-07T12:04:51;14.73;;;8.10;;
80653;SDS011;70020;45.524;10.240;2023-12-07T12:07:24;14.13;;;7.60;;
80653;SDS011;70020;45.524;10.240;2023-12-07T12:12:17;16.40;;;7.90;;
80653;SDS011;70020;45.524;10.240;2023-12-07T12:14:46;18.40;;;7.40;;
80653;SDS011;70020;45.524;10.240;2023-12-07T12:17:14;16.40;;;7.38;;
80653;SDS011;70020;45.524;10.240;2023-12-07T12:19:42;13.10;;;7.20;;
80653;SDS011;70020;45.524;10.240;2023-12-07T12:22:08;11.83;;;7.30;;
80653;SDS011;70020;45.524;10.240;2023-12-07T12:24:35;17.77;;;7.97;;
80653;SDS011;70020;45.524;10.240;2023-12-07T12:27:02;12.45;;;7.07;;
80653;SDS011;70020;45.524;10.240;2023-12-07T12:29:31;15.82;;;7.07;;
80653;SDS011;70020;45.524;10.240;2023-12-07T12:31:58;10.73;;;6.90;;
80653;SDS011;70020;45.524;10.240;2023-12-07T12:34:25;12.25;;;7.03;;
80653;SDS011;70020;45.524;10.240;2023-12-07T12:36:55;15.90;;;7.32;;
80653;SDS011;70020;45.524;10.240;2023-12-07T12:39:26;18.35;;;7.47;;
80653;SDS011;70020;45.524;10.240;2023-12-07T12:41:55;16.35;;;8.45;;
80653;SDS011;70020;45.524;10.240;2023-12-07T12:44:23;15.25;;;8.23;;
80653;SDS011;70020;45.524;10.240;2023-12-07T12:46:49;19.80;;;9.50;;
80653;SDS011;70020;45.524;10.240;2023-12-07T12:49:16;20.63;;;10.23;;
80653;SDS011;70020;45.524;10.240;2023-12-07T12:51:44;24.40;;;10.05;;
80653;SDS011;70020;45.524;10.240;2023-12-07T12:54:10;21.15;;;10.60;;
80653;SDS011;70020;45.524;10.240;2023-12-07T12:56:41;19.60;;;10.10;;
80653;SDS011;70020;45.524;10.240;2023-12-07T12:59:11;17.30;;;9.02;;
80653;SDS011;70020;45.524;10.240;2023-12-07T13:01:37;17.20;;;8.75;;
80653;SDS011;70020;45.524;10.240;2023-12-07T13:04:03;14.23;;;7.38;;
80653;SDS011;70020;45.524;10.240;2023-12-07T13:06:31;12.82;;;7.13;;
80653;SDS011;70020;45.524;10.240;2023-12-07T13:08:57;11.40;;;6.32;;
80653;SDS011;70020;45.524;10.240;2023-12-07T13:11:23;19.23;;;6.00;;
80653;SDS011;70020;45.524;10.240;2023-12-07T13:13:49;9.13;;;5.75;;
80653;SDS011;70020;45.524;10.240;2023-12-07T13:16:17;11.43;;;5.82;;
80653;SDS011;70020;45.524;10.240;2023-12-07T13:18:50;9.13;;;5.57;;
80653;SDS011;70020;45.524;10.240;2023-12-07T13:21:16;13.10;;;8.27;;
80653;SDS011;70020;45.524;10.240;2023-12-07T13:23:42;14.17;;;7.17;;
80653;SDS011;70020;45.524;10.240;2023-12-07T13:26:11;11.32;;;6.53;;
80653;SDS011;70020;45.524;10.240;2023-12-07T13:31:24;11.80;;;6.93;;
80653;SDS011;70020;45.524;10.240;2023-12-07T13:33:51;12.90;;;6.80;;
80653;SDS011;70020;45.524;10.240;2023-12-07T13:36:25;12.77;;;7.10;;
80653;SDS011;70020;45.524;10.240;2023-12-07T13:38:55;13.57;;;8.25;;
80653;SDS011;70020;45.524;10.240;2023-12-07T13:41:27;13.40;;;7.45;;
80653;SDS011;70020;45.524;10.240;2023-12-07T13:43:56;16.10;;;8.95;;
80653;SDS011;70020;45.524;10.240;2023-12-07T13:46:22;14.68;;;9.15;;
80653;SDS011;70020;45.524;10.240;2023-12-07T13:48:49;13.25;;;8.93;;
80653;SDS011;70020;45.524;10.240;2023-12-07T13:51:16;18.75;;;9.57;;
80653;SDS011;70020;45.524;10.240;2023-12-07T13:53:43;18.98;;;10.43;;
80653;SDS011;70020;45.524;10.240;2023-12-07T13:58:35;18.25;;;10.18;;
80653;SDS011;70020;45.524;10.240;2023-12-07T14:01:07;20.27;;;10.00;;
80653;SDS011;70020;45.524;10.240;2023-12-07T14:03:33;13.13;;;9.10;;
80653;SDS011;70020;45.524;10.240;2023-12-07T14:06:02;15.82;;;9.90;;
80653;SDS011;70020;45.524;10.240;2023-12-07T14:08:28;17.13;;;9.50;;
80653;SDS011;70020;45.524;10.240;2023-12-07T14:10:57;18.15;;;8.68;;
80653;SDS011;70020;45.524;10.240;2023-12-07T14:18:16;13.23;;;8.93;;
80653;SDS011;70020;45.524;10.240;2023-12-07T14:20:43;14.45;;;8.50;;
80653;SDS011;70020;45.524;10.240;2023-12-07T14:23:11;17.20;;;9.45;;
80653;SDS011;70020;45.524;10.240;2023-12-07T14:25:39;14.65;;;9.57;;
80653;SDS011;70020;45.524;10.240;2023-12-07T14:28:08;13.27;;;9.07;;
80653;SDS011;70020;45.524;10.240;2023-12-07T14:30:34;13.30;;;7.97;;
80653;SDS011;70020;45.524;10.240;2023-12-07T14:33:01;15.60;;;8.38;;
80653;SDS011;70020;45.524;10.240;2023-12-07T14:35:30;15.65;;;8.52;;
80653;SDS011;70020;45.524;10.240;2023-12-07T14:37:56;21.95;;;10.07;;
80653;SDS011;70020;45.524;10.240;2023-12-07T14:40:23;18.42;;;10.30;;
80653;SDS011;70020;45.524;10.240;2023-12-07T14:42:49;17.95;;;10.63;;
80653;SDS011;70020;45.524;10.240;2023-12-07T14:45:19;18.35;;;10.93;;
80653;SDS011;70020;45.524;10.240;2023-12-07T14:47:50;18.73;;;11.60;;
80653;SDS011;70020;45.524;10.240;2023-12-07T14:50:20;15.63;;;10.80;;
80653;SDS011;70020;45.524;10.240;2023-12-07T14:52:49;18.95;;;11.70;;
80653;SDS011;70020;45.524;10.240;2023-12-07T14:55:15;19.20;;;10.80;;
80653;SDS011;70020;45.524;10.240;2023-12-07T14:57:51;20.98;;;11.48;;
80653;SDS011;70020;45.524;10.240;2023-12-07T15:00:21;20.75;;;10.55;;
80653;SDS011;70020;45.524;10.240;2023-12-07T15:02:50;23.65;;;11.80;;
80653;SDS011;70020;45.524;10.240;2023-12-07T15:05:17;21.02;;;11.63;;
80653;SDS011;70020;45.524;10.240;2023-12-07T15:07:44;19.13;;;11.43;;
80653;SDS011;70020;45.524;10.240;2023-12-07T15:10:11;17.17;;;12.00;;
80653;SDS011;70020;45.524;10.240;2023-12-07T15:12:37;17.03;;;11.13;;
80653;SDS011;70020;45.524;10.240;2023-12-07T15:17:34;21.33;;;11.13;;